sensor_id;sensor_type;location;lat;lon;timestamp;temperature;humidity
75387;DHT22;63966;47.914;22.266;2023-06-19T00:02:12;15.02;91.26
75387;DHT22;63966;47.914;22.266;2023-06-19T00:05:16;15.01;91.35
75387;DHT22;63966;47.914;22.266;2023-06-19T00:08:19;14.99;91.28
75387;DHT22;63966;47.914;22.266;2023-06-19T00:11:23;15.01;91.18
75387;DHT22;63966;47.914;22.266;2023-06-19T00:14:26;14.96;91.13
75387;DHT22;63966;47.914;22.266;2023-06-19T00:17:30;14.94;91.22
75387;DHT22;63966;47.914;22.266;2023-06-19T00:20:33;14.91;91.30
75387;DHT22;63966;47.914;22.266;2023-06-19T00:23:38;14.84;91.51
75387;DHT22;63966;47.914;22.266;2023-06-19T00:26:41;14.85;91.64
75387;DHT22;63966;47.914;22.266;2023-06-19T00:29:46;14.80;91.76
75387;DHT22;63966;47.914;22.266;2023-06-19T00:32:50;14.77;91.70
75387;DHT22;63966;47.914;22.266;2023-06-19T00:35:56;14.78;91.62
75387;DHT22;63966;47.914;22.266;2023-06-19T00:38:59;14.74;91.73
75387;DHT22;63966;47.914;22.266;2023-06-19T00:42:03;14.71;91.81
75387;DHT22;63966;47.914;22.266;2023-06-19T00:45:07;14.70;91.83
75387;DHT22;63966;47.914;22.266;2023-06-19T00:48:12;14.63;92.00
75387;DHT22;63966;47.914;22.266;2023-06-19T00:51:15;14.63;91.86
75387;DHT22;63966;47.914;22.266;2023-06-19T00:54:21;14.61;91.78
75387;DHT22;63966;47.914;22.266;2023-06-19T00:57:24;14.60;91.99
75387;DHT22;63966;47.914;22.266;2023-06-19T01:00:28;14.59;92.08
75387;DHT22;63966;47.914;22.266;2023-06-19T01:03:33;14.56;92.45
75387;DHT22;63966;47.914;22.266;2023-06-19T01:06:56;14.51;92.49
75387;DHT22;63966;47.914;22.266;2023-06-19T01:10:05;14.47;92.34
75387;DHT22;63966;47.914;22.266;2023-06-19T01:16:29;14.40;92.33
75387;DHT22;63966;47.914;22.266;2023-06-19T01:19:33;14.37;92.25
75387;DHT22;63966;47.914;22.266;2023-06-19T01:22:38;14.36;92.34
75387;DHT22;63966;47.914;22.266;2023-06-19T01:25:42;14.32;92.39
75387;DHT22;63966;47.914;22.266;2023-06-19T01:28:46;14.29;92.43
75387;DHT22;63966;47.914;22.266;2023-06-19T01:32:10;14.23;92.49
75387;DHT22;63966;47.914;22.266;2023-06-19T01:35:19;14.23;92.54
75387;DHT22;63966;47.914;22.266;2023-06-19T01:38:24;14.19;92.65
75387;DHT22;63966;47.914;22.266;2023-06-19T01:41:30;14.17;92.63
75387;DHT22;63966;47.914;22.266;2023-06-19T01:44:35;14.15;92.72
75387;DHT22;63966;47.914;22.266;2023-06-19T01:47:38;14.12;92.66
75387;DHT22;63966;47.914;22.266;2023-06-19T01:50:46;14.15;92.70
75387;DHT22;63966;47.914;22.266;2023-06-19T01:53:50;14.12;92.59
75387;DHT22;63966;47.914;22.266;2023-06-19T01:56:53;14.08;92.61
75387;DHT22;63966;47.914;22.266;2023-06-19T01:59:57;14.08;92.67
75387;DHT22;63966;47.914;22.266;2023-06-19T02:03:00;14.01;92.78
75387;DHT22;63966;47.914;22.266;2023-06-19T02:06:04;13.98;92.98
75387;DHT22;63966;47.914;22.266;2023-06-19T02:09:08;14.13;92.55
75387;DHT22;63966;47.914;22.266;2023-06-19T02:12:14;14.09;92.35
75387;DHT22;63966;47.914;22.266;2023-06-19T02:15:17;14.06;92.71
75387;DHT22;63966;47.914;22.266;2023-06-19T02:18:21;14.10;92.54
75387;DHT22;63966;47.914;22.266;2023-06-19T02:21:24;14.06;92.52
75387;DHT22;63966;47.914;22.266;2023-06-19T02:24:28;14.01;92.65
75387;DHT22;63966;47.914;22.266;2023-06-19T02:27:31;13.95;92.77
75387;DHT22;63966;47.914;22.266;2023-06-19T02:30:35;13.97;92.93
75387;DHT22;63966;47.914;22.266;2023-06-19T02:33:38;14.02;92.72
75387;DHT22;63966;47.914;22.266;2023-06-19T02:36:42;14.05;92.56
75387;DHT22;63966;47.914;22.266;2023-06-19T02:39:45;14.04;92.42
75387;DHT22;63966;47.914;22.266;2023-06-19T02:42:50;14.02;92.40
75387;DHT22;63966;47.914;22.266;2023-06-19T02:45:53;14.02;92.43
75387;DHT22;63966;47.914;22.266;2023-06-19T02:48:57;14.04;92.42
75387;DHT22;63966;47.914;22.266;2023-06-19T02:52:00;14.08;92.15
75387;DHT22;63966;47.914;22.266;2023-06-19T02:55:04;14.10;91.88
75387;DHT22;63966;47.914;22.266;2023-06-19T02:58:10;14.20;91.43
75387;DHT22;63966;47.914;22.266;2023-06-19T03:01:14;14.36;90.79
75387;DHT22;63966;47.914;22.266;2023-06-19T03:04:20;14.44;90.52
75387;DHT22;63966;47.914;22.266;2023-06-19T03:07:24;14.59;90.01
75387;DHT22;63966;47.914;22.266;2023-06-19T03:10:31;14.67;89.72
75387;DHT22;63966;47.914;22.266;2023-06-19T03:13:46;14.74;89.49
75387;DHT22;63966;47.914;22.266;2023-06-19T03:16:50;14.83;89.17
75387;DHT22;63966;47.914;22.266;2023-06-19T03:19:53;14.95;88.60
75387;DHT22;63966;47.914;22.266;2023-06-19T03:22:58;15.02;88.28
75387;DHT22;63966;47.914;22.266;2023-06-19T03:26:03;15.28;87.71
75387;DHT22;63966;47.914;22.266;2023-06-19T03:29:07;15.66;86.52
75387;DHT22;63966;47.914;22.266;2023-06-19T03:32:32;16.81;82.15
75387;DHT22;63966;47.914;22.266;2023-06-19T03:35:36;17.73;78.65
75387;DHT22;63966;47.914;22.266;2023-06-19T03:38:40;18.41;75.26
75387;DHT22;63966;47.914;22.266;2023-06-19T03:41:46;18.79;74.66
75387;DHT22;63966;47.914;22.266;2023-06-19T03:44:49;19.05;73.02
75387;DHT22;63966;47.914;22.266;2023-06-19T03:47:53;19.41;72.07
75387;DHT22;63966;47.914;22.266;2023-06-19T03:50:57;19.60;70.67
75387;DHT22;63966;47.914;22.266;2023-06-19T03:54:00;19.89;69.86
75387;DHT22;63966;47.914;22.266;2023-06-19T03:57:04;20.06;69.95
75387;DHT22;63966;47.914;22.266;2023-06-19T04:00:08;20.11;68.71
75387;DHT22;63966;47.914;22.266;2023-06-19T04:03:17;20.63;67.20
75387;DHT22;63966;47.914;22.266;2023-06-19T04:06:21;20.95;66.67
75387;DHT22;63966;47.914;22.266;2023-06-19T04:09:25;21.24;66.39
75387;DHT22;63966;47.914;22.266;2023-06-19T04:12:29;21.35;64.18
75387;DHT22;63966;47.914;22.266;2023-06-19T04:15:33;21.38;65.76
75387;DHT22;63966;47.914;22.266;2023-06-19T04:18:37;21.90;62.85
75387;DHT22;63966;47.914;22.266;2023-06-19T04:21:41;22.35;61.34
75387;DHT22;63966;47.914;22.266;2023-06-19T04:24:44;22.48;61.59
75387;DHT22;63966;47.914;22.266;2023-06-19T04:27:48;22.70;59.76
75387;DHT22;63966;47.914;22.266;2023-06-19T04:30:51;22.75;60.00
75387;DHT22;63966;47.914;22.266;2023-06-19T04:34:03;22.79;59.06
75387;DHT22;63966;47.914;22.266;2023-06-19T04:37:07;22.41;61.22
75387;DHT22;63966;47.914;22.266;2023-06-19T04:40:11;22.53;59.70
75387;DHT22;63966;47.914;22.266;2023-06-19T04:43:14;22.93;59.68
75387;DHT22;63966;47.914;22.266;2023-06-19T04:46:18;23.50;57.69
75387;DHT22;63966;47.914;22.266;2023-06-19T04:49:23;23.81;58.08
75387;DHT22;63966;47.914;22.266;2023-06-19T04:52:27;24.26;54.79
75387;DHT22;63966;47.914;22.266;2023-06-19T04:55:30;24.19;56.10
75387;DHT22;63966;47.914;22.266;2023-06-19T04:58:34;24.23;55.72
75387;DHT22;63966;47.914;22.266;2023-06-19T05:01:37;24.60;54.57
75387;DHT22;63966;47.914;22.266;2023-06-19T05:04:43;24.61;54.61
75387;DHT22;63966;47.914;22.266;2023-06-19T05:07:47;24.68;54.23
75387;DHT22;63966;47.914;22.266;2023-06-19T05:10:50;25.22;54.05
75387;DHT22;63966;47.914;22.266;2023-06-19T05:13:54;25.19;54.23
75387;DHT22;63966;47.914;22.266;2023-06-19T05:16:57;25.46;52.53
75387;DHT22;63966;47.914;22.266;2023-06-19T05:20:00;25.98;51.57
75387;DHT22;63966;47.914;22.266;2023-06-19T05:23:04;26.36;51.86
75387;DHT22;63966;47.914;22.266;2023-06-19T05:26:07;26.68;50.21
75387;DHT22;63966;47.914;22.266;2023-06-19T05:29:10;26.26;50.90
75387;DHT22;63966;47.914;22.266;2023-06-19T05:32:14;26.43;51.13
75387;DHT22;63966;47.914;22.266;2023-06-19T05:35:17;27.03;49.16
75387;DHT22;63966;47.914;22.266;2023-06-19T05:38:21;26.96;49.74
75387;DHT22;63966;47.914;22.266;2023-06-19T05:41:26;27.33;49.02
75387;DHT22;63966;47.914;22.266;2023-06-19T05:44:29;26.45;49.76
75387;DHT22;63966;47.914;22.266;2023-06-19T05:47:33;27.18;49.96
75387;DHT22;63966;47.914;22.266;2023-06-19T05:50:36;27.00;48.89
75387;DHT22;63966;47.914;22.266;2023-06-19T05:53:40;27.69;48.05
75387;DHT22;63966;47.914;22.266;2023-06-19T05:56:43;27.55;47.98
75387;DHT22;63966;47.914;22.266;2023-06-19T05:59:47;27.63;47.61
75387;DHT22;63966;47.914;22.266;2023-06-19T06:02:50;27.78;47.61
75387;DHT22;63966;47.914;22.266;2023-06-19T06:05:55;27.97;47.07
75387;DHT22;63966;47.914;22.266;2023-06-19T06:09:05;28.33;47.02
75387;DHT22;63966;47.914;22.266;2023-06-19T06:12:09;28.67;47.01
75387;DHT22;63966;47.914;22.266;2023-06-19T06:15:12;28.33;47.78
75387;DHT22;63966;47.914;22.266;2023-06-19T06:18:15;28.34;48.90
75387;DHT22;63966;47.914;22.266;2023-06-19T06:21:19;28.28;48.02
75387;DHT22;63966;47.914;22.266;2023-06-19T06:24:22;28.44;47.18
75387;DHT22;63966;47.914;22.266;2023-06-19T06:27:25;28.62;49.19
75387;DHT22;63966;47.914;22.266;2023-06-19T06:30:29;28.99;47.59
75387;DHT22;63966;47.914;22.266;2023-06-19T06:33:33;29.10;47.26
75387;DHT22;63966;47.914;22.266;2023-06-19T06:36:36;29.17;46.96
75387;DHT22;63966;47.914;22.266;2023-06-19T06:39:51;29.09;48.06
75387;DHT22;63966;47.914;22.266;2023-06-19T06:42:55;28.98;48.38
75387;DHT22;63966;47.914;22.266;2023-06-19T06:45:58;29.49;46.58
75387;DHT22;63966;47.914;22.266;2023-06-19T06:49:02;29.33;45.24
75387;DHT22;63966;47.914;22.266;2023-06-19T06:52:06;29.95;44.63
75387;DHT22;63966;47.914;22.266;2023-06-19T06:55:10;30.15;44.16
75387;DHT22;63966;47.914;22.266;2023-06-19T06:58:13;29.78;44.48
75387;DHT22;63966;47.914;22.266;2023-06-19T07:01:17;30.28;45.10
75387;DHT22;63966;47.914;22.266;2023-06-19T07:04:21;30.73;42.92
75387;DHT22;63966;47.914;22.266;2023-06-19T07:07:24;30.59;45.17
75387;DHT22;63966;47.914;22.266;2023-06-19T07:10:27;31.15;42.83
75387;DHT22;63966;47.914;22.266;2023-06-19T07:13:31;31.45;41.65
75387;DHT22;63966;47.914;22.266;2023-06-19T07:16:35;31.12;42.01
75387;DHT22;63966;47.914;22.266;2023-06-19T07:19:38;31.29;43.69
75387;DHT22;63966;47.914;22.266;2023-06-19T07:22:42;31.29;43.15
75387;DHT22;63966;47.914;22.266;2023-06-19T07:25:49;31.70;44.03
75387;DHT22;63966;47.914;22.266;2023-06-19T07:28:52;31.41;41.60
75387;DHT22;63966;47.914;22.266;2023-06-19T07:31:56;32.20;40.13
75387;DHT22;63966;47.914;22.266;2023-06-19T07:34:59;32.27;41.41
75387;DHT22;63966;47.914;22.266;2023-06-19T07:38:03;33.19;40.34
75387;DHT22;63966;47.914;22.266;2023-06-19T07:41:06;33.23;38.02
75387;DHT22;63966;47.914;22.266;2023-06-19T07:44:11;33.44;39.13
75387;DHT22;63966;47.914;22.266;2023-06-19T07:47:16;33.67;38.52
75387;DHT22;63966;47.914;22.266;2023-06-19T07:50:21;33.43;37.64
75387;DHT22;63966;47.914;22.266;2023-06-19T07:53:29;33.47;37.92
75387;DHT22;63966;47.914;22.266;2023-06-19T07:56:33;32.76;40.78
75387;DHT22;63966;47.914;22.266;2023-06-19T07:59:36;33.03;38.84
75387;DHT22;63966;47.914;22.266;2023-06-19T08:02:40;32.85;38.91
75387;DHT22;63966;47.914;22.266;2023-06-19T08:05:44;33.39;36.78
75387;DHT22;63966;47.914;22.266;2023-06-19T08:08:47;33.94;37.43
75387;DHT22;63966;47.914;22.266;2023-06-19T08:11:52;34.46;36.69
75387;DHT22;63966;47.914;22.266;2023-06-19T08:14:55;34.36;35.50
75387;DHT22;63966;47.914;22.266;2023-06-19T08:17:59;33.63;35.04
75387;DHT22;63966;47.914;22.266;2023-06-19T08:21:02;33.97;34.97
75387;DHT22;63966;47.914;22.266;2023-06-19T08:24:06;34.11;35.45
75387;DHT22;63966;47.914;22.266;2023-06-19T08:27:09;33.39;37.99
75387;DHT22;63966;47.914;22.266;2023-06-19T08:30:13;33.58;38.55
75387;DHT22;63966;47.914;22.266;2023-06-19T08:33:16;34.01;36.84
75387;DHT22;63966;47.914;22.266;2023-06-19T08:36:20;33.74;34.24
75387;DHT22;63966;47.914;22.266;2023-06-19T08:39:23;33.15;34.64
75387;DHT22;63966;47.914;22.266;2023-06-19T08:42:29;33.26;33.79
75387;DHT22;63966;47.914;22.266;2023-06-19T08:45:33;33.91;35.15
75387;DHT22;63966;47.914;22.266;2023-06-19T08:48:37;33.51;34.21
75387;DHT22;63966;47.914;22.266;2023-06-19T08:51:41;32.92;34.39
75387;DHT22;63966;47.914;22.266;2023-06-19T08:54:44;30.97;39.60
75387;DHT22;63966;47.914;22.266;2023-06-19T08:57:49;29.51;39.39
75387;DHT22;63966;47.914;22.266;2023-06-19T09:00:53;28.62;44.89
75387;DHT22;63966;47.914;22.266;2023-06-19T09:03:56;28.20;43.78
75387;DHT22;63966;47.914;22.266;2023-06-19T09:07:04;28.04;46.13
75387;DHT22;63966;47.914;22.266;2023-06-19T09:10:17;27.88;43.77
75387;DHT22;63966;47.914;22.266;2023-06-19T09:13:22;27.66;48.55
75387;DHT22;63966;47.914;22.266;2023-06-19T09:16:40;27.92;51.75
75387;DHT22;63966;47.914;22.266;2023-06-19T09:19:51;27.73;47.90
75387;DHT22;63966;47.914;22.266;2023-06-19T09:22:59;27.61;46.34
75387;DHT22;63966;47.914;22.266;2023-06-19T09:26:02;27.35;47.94
75387;DHT22;63966;47.914;22.266;2023-06-19T09:29:15;27.27;45.33
75387;DHT22;63966;47.914;22.266;2023-06-19T09:32:25;27.70;47.92
75387;DHT22;63966;47.914;22.266;2023-06-19T09:35:29;27.58;46.33
75387;DHT22;63966;47.914;22.266;2023-06-19T09:38:37;27.35;48.75
75387;DHT22;63966;47.914;22.266;2023-06-19T09:41:47;27.42;51.51
75387;DHT22;63966;47.914;22.266;2023-06-19T09:44:59;27.15;47.74
75387;DHT22;63966;47.914;22.266;2023-06-19T09:48:04;27.24;51.67
75387;DHT22;63966;47.914;22.266;2023-06-19T09:51:31;27.33;50.32
75387;DHT22;63966;47.914;22.266;2023-06-19T09:54:35;27.44;47.14
75387;DHT22;63966;47.914;22.266;2023-06-19T09:57:39;27.69;47.36
75387;DHT22;63966;47.914;22.266;2023-06-19T10:00:43;27.49;45.11
75387;DHT22;63966;47.914;22.266;2023-06-19T10:03:47;27.88;45.86
75387;DHT22;63966;47.914;22.266;2023-06-19T10:06:50;27.88;45.00
75387;DHT22;63966;47.914;22.266;2023-06-19T10:10:08;28.09;46.84
75387;DHT22;63966;47.914;22.266;2023-06-19T10:13:16;27.81;48.29
75387;DHT22;63966;47.914;22.266;2023-06-19T10:16:23;27.31;47.95
75387;DHT22;63966;47.914;22.266;2023-06-19T10:19:33;27.52;50.94
75387;DHT22;63966;47.914;22.266;2023-06-19T10:22:36;27.33;48.60
75387;DHT22;63966;47.914;22.266;2023-06-19T10:25:45;26.63;47.99
75387;DHT22;63966;47.914;22.266;2023-06-19T10:28:48;26.42;49.78
75387;DHT22;63966;47.914;22.266;2023-06-19T10:31:52;26.90;51.39
75387;DHT22;63966;47.914;22.266;2023-06-19T10:34:56;27.49;47.77
75387;DHT22;63966;47.914;22.266;2023-06-19T10:37:59;27.41;48.89
75387;DHT22;63966;47.914;22.266;2023-06-19T10:41:02;27.70;45.72
75387;DHT22;63966;47.914;22.266;2023-06-19T10:44:07;27.39;43.87
75387;DHT22;63966;47.914;22.266;2023-06-19T10:47:16;27.38;46.73
75387;DHT22;63966;47.914;22.266;2023-06-19T10:50:20;27.73;47.25
75387;DHT22;63966;47.914;22.266;2023-06-19T10:53:28;27.66;46.63
75387;DHT22;63966;47.914;22.266;2023-06-19T10:56:32;27.42;45.96
75387;DHT22;63966;47.914;22.266;2023-06-19T10:59:35;27.20;43.49
75387;DHT22;63966;47.914;22.266;2023-06-19T11:02:42;27.25;44.03
75387;DHT22;63966;47.914;22.266;2023-06-19T11:05:47;26.79;46.20
75387;DHT22;63966;47.914;22.266;2023-06-19T11:08:52;26.62;44.56
75387;DHT22;63966;47.914;22.266;2023-06-19T11:11:59;26.55;45.47
75387;DHT22;63966;47.914;22.266;2023-06-19T11:15:05;26.42;48.96
75387;DHT22;63966;47.914;22.266;2023-06-19T11:18:08;26.77;46.18
75387;DHT22;63966;47.914;22.266;2023-06-19T11:21:12;26.98;47.87
75387;DHT22;63966;47.914;22.266;2023-06-19T11:24:16;26.98;45.91
75387;DHT22;63966;47.914;22.266;2023-06-19T11:27:22;27.01;46.80
75387;DHT22;63966;47.914;22.266;2023-06-19T11:30:34;27.23;44.86
75387;DHT22;63966;47.914;22.266;2023-06-19T11:33:38;27.15;46.67
75387;DHT22;63966;47.914;22.266;2023-06-19T11:36:43;27.18;45.65
75387;DHT22;63966;47.914;22.266;2023-06-19T11:39:49;27.33;41.58
75387;DHT22;63966;47.914;22.266;2023-06-19T11:42:54;27.23;43.69
75387;DHT22;63966;47.914;22.266;2023-06-19T11:46:05;27.01;41.64
75387;DHT22;63966;47.914;22.266;2023-06-19T11:49:13;26.97;42.07
75387;DHT22;63966;47.914;22.266;2023-06-19T11:52:17;27.07;40.89
75387;DHT22;63966;47.914;22.266;2023-06-19T11:55:20;27.01;43.55
75387;DHT22;63966;47.914;22.266;2023-06-19T11:58:24;26.94;41.80
75387;DHT22;63966;47.914;22.266;2023-06-19T12:01:27;26.68;42.05
75387;DHT22;63966;47.914;22.266;2023-06-19T12:04:31;26.57;38.89
75387;DHT22;63966;47.914;22.266;2023-06-19T12:07:34;26.69;44.59
75387;DHT22;63966;47.914;22.266;2023-06-19T12:10:37;27.07;45.28
75387;DHT22;63966;47.914;22.266;2023-06-19T12:13:41;27.21;44.30
75387;DHT22;63966;47.914;22.266;2023-06-19T12:16:48;27.30;43.91
75387;DHT22;63966;47.914;22.266;2023-06-19T12:19:51;27.35;45.52
75387;DHT22;63966;47.914;22.266;2023-06-19T12:22:56;27.33;45.26
75387;DHT22;63966;47.914;22.266;2023-06-19T12:25:59;27.18;44.19
75387;DHT22;63966;47.914;22.266;2023-06-19T12:29:04;27.10;42.98
75387;DHT22;63966;47.914;22.266;2023-06-19T12:32:07;27.07;44.75
75387;DHT22;63966;47.914;22.266;2023-06-19T12:35:11;27.24;45.22
75387;DHT22;63966;47.914;22.266;2023-06-19T12:38:14;27.30;41.98
75387;DHT22;63966;47.914;22.266;2023-06-19T12:41:18;27.15;39.83
75387;DHT22;63966;47.914;22.266;2023-06-19T12:44:22;27.04;42.34
75387;DHT22;63966;47.914;22.266;2023-06-19T12:47:26;27.00;44.31
75387;DHT22;63966;47.914;22.266;2023-06-19T12:50:29;27.18;41.43
75387;DHT22;63966;47.914;22.266;2023-06-19T12:53:33;27.24;45.95
75387;DHT22;63966;47.914;22.266;2023-06-19T12:56:36;27.21;45.42
75387;DHT22;63966;47.914;22.266;2023-06-19T12:59:39;27.01;42.21
75387;DHT22;63966;47.914;22.266;2023-06-19T13:02:43;26.91;41.53
75387;DHT22;63966;47.914;22.266;2023-06-19T13:05:47;26.82;40.46
75387;DHT22;63966;47.914;22.266;2023-06-19T13:08:51;26.89;41.23
75387;DHT22;63966;47.914;22.266;2023-06-19T13:11:54;26.89;41.90
75387;DHT22;63966;47.914;22.266;2023-06-19T13:14:57;26.76;41.23
75387;DHT22;63966;47.914;22.266;2023-06-19T13:18:01;26.69;41.60
75387;DHT22;63966;47.914;22.266;2023-06-19T13:21:04;26.59;41.29
75387;DHT22;63966;47.914;22.266;2023-06-19T13:24:08;26.68;43.51
75387;DHT22;63966;47.914;22.266;2023-06-19T13:27:11;26.57;43.49
75387;DHT22;63966;47.914;22.266;2023-06-19T13:30:15;26.63;45.17
75387;DHT22;63966;47.914;22.266;2023-06-19T13:33:19;26.70;43.75
75387;DHT22;63966;47.914;22.266;2023-06-19T13:36:22;26.72;42.88
75387;DHT22;63966;47.914;22.266;2023-06-19T13:39:27;26.59;39.82
75387;DHT22;63966;47.914;22.266;2023-06-19T13:42:30;26.52;43.35
75387;DHT22;63966;47.914;22.266;2023-06-19T13:45:34;26.64;42.57
75387;DHT22;63966;47.914;22.266;2023-06-19T13:48:38;26.62;41.30
75387;DHT22;63966;47.914;22.266;2023-06-19T13:51:41;26.60;42.09
75387;DHT22;63966;47.914;22.266;2023-06-19T13:54:47;26.66;42.44
75387;DHT22;63966;47.914;22.266;2023-06-19T13:57:50;26.72;40.98
75387;DHT22;63966;47.914;22.266;2023-06-19T14:00:55;26.66;41.96
75387;DHT22;63966;47.914;22.266;2023-06-19T14:04:00;26.68;43.95
75387;DHT22;63966;47.914;22.266;2023-06-19T14:07:03;26.68;43.37
75387;DHT22;63966;47.914;22.266;2023-06-19T14:10:07;26.56;40.84
75387;DHT22;63966;47.914;22.266;2023-06-19T14:13:10;26.60;41.47
75387;DHT22;63966;47.914;22.266;2023-06-19T14:16:17;26.62;40.41
75387;DHT22;63966;47.914;22.266;2023-06-19T14:19:20;26.50;41.98
75387;DHT22;63966;47.914;22.266;2023-06-19T14:22:24;26.59;44.29
75387;DHT22;63966;47.914;22.266;2023-06-19T14:25:27;26.56;42.03
75387;DHT22;63966;47.914;22.266;2023-06-19T14:28:30;26.52;44.19
75387;DHT22;63966;47.914;22.266;2023-06-19T14:31:34;26.49;41.84
75387;DHT22;63966;47.914;22.266;2023-06-19T14:34:37;26.41;41.19
75387;DHT22;63966;47.914;22.266;2023-06-19T14:37:41;26.36;42.43
75387;DHT22;63966;47.914;22.266;2023-06-19T14:40:44;26.38;44.32
75387;DHT22;63966;47.914;22.266;2023-06-19T14:43:48;26.32;42.08
75387;DHT22;63966;47.914;22.266;2023-06-19T14:46:51;26.33;42.07
75387;DHT22;63966;47.914;22.266;2023-06-19T14:49:55;26.14;42.54
75387;DHT22;63966;47.914;22.266;2023-06-19T14:52:58;25.88;44.79
75387;DHT22;63966;47.914;22.266;2023-06-19T14:56:01;25.63;44.81
75387;DHT22;63966;47.914;22.266;2023-06-19T14:59:05;25.43;45.76
75387;DHT22;63966;47.914;22.266;2023-06-19T15:02:09;25.35;46.50
75387;DHT22;63966;47.914;22.266;2023-06-19T15:05:14;25.30;47.83
75387;DHT22;63966;47.914;22.266;2023-06-19T15:08:17;25.32;46.72
75387;DHT22;63966;47.914;22.266;2023-06-19T15:11:27;25.25;47.43
75387;DHT22;63966;47.914;22.266;2023-06-19T15:14:30;25.25;47.51
75387;DHT22;63966;47.914;22.266;2023-06-19T15:17:34;25.32;48.52
75387;DHT22;63966;47.914;22.266;2023-06-19T15:20:38;25.53;49.63
75387;DHT22;63966;47.914;22.266;2023-06-19T15:23:41;25.67;48.59
75387;DHT22;63966;47.914;22.266;2023-06-19T15:26:45;25.75;48.41
75387;DHT22;63966;47.914;22.266;2023-06-19T15:29:48;25.81;47.59
75387;DHT22;63966;47.914;22.266;2023-06-19T15:32:52;25.80;45.82
75387;DHT22;63966;47.914;22.266;2023-06-19T15:35:55;25.75;45.61
75387;DHT22;63966;47.914;22.266;2023-06-19T15:38:58;25.69;45.64
75387;DHT22;63966;47.914;22.266;2023-06-19T15:42:02;25.62;43.53
75387;DHT22;63966;47.914;22.266;2023-06-19T15:45:06;25.56;45.06
75387;DHT22;63966;47.914;22.266;2023-06-19T15:48:10;25.51;44.66
75387;DHT22;63966;47.914;22.266;2023-06-19T15:51:13;25.51;44.75
75387;DHT22;63966;47.914;22.266;2023-06-19T15:54:16;25.47;46.56
75387;DHT22;63966;47.914;22.266;2023-06-19T15:57:21;25.51;42.60
75387;DHT22;63966;47.914;22.266;2023-06-19T16:00:24;25.46;44.51
75387;DHT22;63966;47.914;22.266;2023-06-19T16:03:28;25.49;45.06
75387;DHT22;63966;47.914;22.266;2023-06-19T16:06:33;25.42;44.81
75387;DHT22;63966;47.914;22.266;2023-06-19T16:09:38;25.36;46.67
75387;DHT22;63966;47.914;22.266;2023-06-19T16:12:56;25.26;44.54
75387;DHT22;63966;47.914;22.266;2023-06-19T16:15:59;25.20;45.84
75387;DHT22;63966;47.914;22.266;2023-06-19T16:19:03;25.16;46.27
75387;DHT22;63966;47.914;22.266;2023-06-19T16:22:06;25.20;48.68
75387;DHT22;63966;47.914;22.266;2023-06-19T16:25:10;25.23;46.65
75387;DHT22;63966;47.914;22.266;2023-06-19T16:28:14;25.18;48.31
75387;DHT22;63966;47.914;22.266;2023-06-19T16:31:17;25.16;47.94
75387;DHT22;63966;47.914;22.266;2023-06-19T16:34:22;25.20;47.22
75387;DHT22;63966;47.914;22.266;2023-06-19T16:37:25;25.14;48.88
75387;DHT22;63966;47.914;22.266;2023-06-19T16:40:29;24.98;48.79
75387;DHT22;63966;47.914;22.266;2023-06-19T16:43:32;24.99;49.75
75387;DHT22;63966;47.914;22.266;2023-06-19T16:46:36;24.89;48.79
75387;DHT22;63966;47.914;22.266;2023-06-19T16:49:39;24.84;49.96
75387;DHT22;63966;47.914;22.266;2023-06-19T16:52:43;24.79;49.24
75387;DHT22;63966;47.914;22.266;2023-06-19T16:55:46;24.74;50.47
75387;DHT22;63966;47.914;22.266;2023-06-19T16:58:50;24.64;51.63
75387;DHT22;63966;47.914;22.266;2023-06-19T17:01:54;24.63;52.82
75387;DHT22;63966;47.914;22.266;2023-06-19T17:04:57;24.53;53.35
75387;DHT22;63966;47.914;22.266;2023-06-19T17:08:01;24.51;52.71
75387;DHT22;63966;47.914;22.266;2023-06-19T17:11:04;24.44;52.90
75387;DHT22;63966;47.914;22.266;2023-06-19T17:14:07;24.39;52.58
75387;DHT22;63966;47.914;22.266;2023-06-19T17:17:11;24.37;52.53
75387;DHT22;63966;47.914;22.266;2023-06-19T17:20:14;24.33;53.47
75387;DHT22;63966;47.914;22.266;2023-06-19T17:23:18;24.19;55.03
75387;DHT22;63966;47.914;22.266;2023-06-19T17:26:21;24.06;54.69
75387;DHT22;63966;47.914;22.266;2023-06-19T17:29:25;23.92;55.51
75387;DHT22;63966;47.914;22.266;2023-06-19T17:32:31;23.79;57.01
75387;DHT22;63966;47.914;22.266;2023-06-19T17:35:36;23.57;59.34
75387;DHT22;63966;47.914;22.266;2023-06-19T17:38:40;23.43;58.52
75387;DHT22;63966;47.914;22.266;2023-06-19T17:41:43;23.31;59.46
75387;DHT22;63966;47.914;22.266;2023-06-19T17:44:46;23.26;59.36
75387;DHT22;63966;47.914;22.266;2023-06-19T17:47:50;23.14;58.39
75387;DHT22;63966;47.914;22.266;2023-06-19T17:50:53;23.07;59.95
75387;DHT22;63966;47.914;22.266;2023-06-19T17:53:57;22.90;60.38
75387;DHT22;63966;47.914;22.266;2023-06-19T17:57:00;22.73;61.08
75387;DHT22;63966;47.914;22.266;2023-06-19T18:00:04;22.56;62.10
75387;DHT22;63966;47.914;22.266;2023-06-19T18:03:15;22.47;63.23
75387;DHT22;63966;47.914;22.266;2023-06-19T18:06:19;22.34;64.02
75387;DHT22;63966;47.914;22.266;2023-06-19T18:09:23;22.17;64.28
75387;DHT22;63966;47.914;22.266;2023-06-19T18:12:26;21.97;69.37
75387;DHT22;63966;47.914;22.266;2023-06-19T18:15:30;21.73;68.20
75387;DHT22;63966;47.914;22.266;2023-06-19T18:18:33;21.60;67.61
75387;DHT22;63966;47.914;22.266;2023-06-19T18:21:37;21.53;68.91
75387;DHT22;63966;47.914;22.266;2023-06-19T18:24:40;21.35;71.42
75387;DHT22;63966;47.914;22.266;2023-06-19T18:27:45;21.21;72.71
75387;DHT22;63966;47.914;22.266;2023-06-19T18:30:48;20.92;74.41
75387;DHT22;63966;47.914;22.266;2023-06-19T18:33:52;20.63;76.34
75387;DHT22;63966;47.914;22.266;2023-06-19T18:36:56;20.41;78.34
75387;DHT22;63966;47.914;22.266;2023-06-19T18:39:59;20.23;78.76
75387;DHT22;63966;47.914;22.266;2023-06-19T18:43:03;20.12;78.85
75387;DHT22;63966;47.914;22.266;2023-06-19T18:46:06;20.05;78.39
75387;DHT22;63966;47.914;22.266;2023-06-19T18:49:10;19.98;78.68
75387;DHT22;63966;47.914;22.266;2023-06-19T18:52:13;19.84;81.34
75387;DHT22;63966;47.914;22.266;2023-06-19T18:55:17;19.64;81.27
75387;DHT22;63966;47.914;22.266;2023-06-19T18:58:20;19.51;80.89
75387;DHT22;63966;47.914;22.266;2023-06-19T19:01:24;19.43;81.36
75387;DHT22;63966;47.914;22.266;2023-06-19T19:04:28;19.40;83.51
75387;DHT22;63966;47.914;22.266;2023-06-19T19:07:32;19.33;83.62
75387;DHT22;63966;47.914;22.266;2023-06-19T19:10:35;19.28;83.36